Pagrindinis puslapis
METAR-TAF:

METAR-TAF

Oro uostai :

Piza, Italija

platuma: 43-41N, ilguma: 010-23E, Aukštis: 2 m

Dabartinis oras

Ataskaita buvo paskelbta 33 minutes, ne 01:15 UTC
Vėjas 3 kt iš Pietų
Temperatūra 10°C
Drėgmė 93%
Slėgis 1019 hPa
Matomumas 10 km arba daugiau
Mažai debesys ne aukštis 6000 ft

METAR: LIRP 220115Z 18003KT 9999 FEW060 10/09 Q1019 NOSIG

Laikas: 03:48 (01:48 UTC)

Prognozė

Ataskaita buvo paskelbta 2 valandos ir 48 minutes, ne 23:00 UTC
Prognozė galioja nuo 22 metu 00 UTC su 22 metu 24 UTC
Vėjas 8 kt iš Pietų/Pietryčių
Matomumas 10 km arba daugiau
Išsisklaidę debesys ne aukštis 7000 ft
Tikimybė 40% :
Laikinai
nuo 22 metu 00 UTC su 22 metu 08 UTC
Matomumas: 5000 m
Su prošvaistėmis ne aukštis 1500 ft
lietus, rūkana

TAF: LIRP 212300Z 2200/2224 16008KT 9999 SCT070 PROB40 TEMPO 2200/2208 5000 RA BR BKN015

Orai ataskaitas ir orų prognozės (METAR, TAF).

turimą stotys yra geltonos ir raudonos taškus žemėlapyje.

Perkelti pele per norėdami pamatyti stoties vardą.

Tada spustelėkite, norėdami matyti oro stebėjimo ir prognozės.

Norėdami pakeisti žemėlapį: spustelėkite ant žalios mygtukų su juodo kryžiaus žemyn,; žalią mygtuką su brūkšneliu, jei norite nutolinti; arba žalių rodyklių gretimoms žemėlapius.


METAR-TAF: